createdAt,value
2018-02-07T00:00:59.965Z,32.25
2018-02-07T00:03:28.367Z,31.40
2018-02-07T00:05:57.512Z,29.87
2018-02-07T00:08:25.918Z,32.38
2018-02-07T00:10:56.197Z,30.80
2018-02-07T00:13:24.616Z,32.25
2018-02-07T00:15:52.996Z,32.05
2018-02-07T00:18:21.413Z,32.00
2018-02-07T00:20:49.814Z,32.42
2018-02-07T00:23:18.194Z,29.50
2018-02-07T00:25:46.593Z,28.55
2018-02-07T00:28:14.965Z,33.85
2018-02-07T00:30:43.349Z,31.50
2018-02-07T00:33:11.796Z,31.05
2018-02-07T00:35:40.242Z,31.83
2018-02-07T00:38:08.628Z,28.87
2018-02-07T00:40:37.814Z,31.23
2018-02-07T00:43:06.969Z,31.85
2018-02-07T00:45:35.374Z,29.48
2018-02-07T00:48:03.768Z,32.45
2018-02-07T00:50:32.923Z,33.03
2018-02-07T00:53:01.296Z,29.17
2018-02-07T00:55:29.724Z,32.10
2018-02-07T00:57:58.853Z,28.08
2018-02-07T01:00:27.221Z,30.17
2018-02-07T01:02:55.624Z,31.95
2018-02-07T01:05:24.002Z,28.73
2018-02-07T01:07:52.398Z,31.75
2018-02-07T01:10:20.796Z,32.28
2018-02-07T01:12:49.174Z,30.52
2018-02-07T01:15:17.551Z,30.05
2018-02-07T01:17:45.965Z,29.92
2018-02-07T01:20:15.097Z,31.70
2018-02-07T01:22:43.501Z,31.25
2018-02-07T01:25:11.909Z,31.50
2018-02-07T01:27:41.056Z,29.33
2018-02-07T01:30:09.431Z,31.52
2018-02-07T01:32:37.845Z,30.60
2018-02-07T01:35:06.218Z,29.40
2018-02-07T01:37:34.598Z,29.17
2018-02-07T01:40:03.013Z,33.42
2018-02-07T01:42:32.144Z,30.92
2018-02-07T01:45:00.510Z,31.23
2018-02-07T01:47:28.914Z,30.52
2018-02-07T01:49:57.288Z,30.55
2018-02-07T01:52:25.662Z,30.92
2018-02-07T01:54:54.070Z,32.10
2018-02-07T01:57:22.441Z,33.25
2018-02-07T01:59:50.822Z,35.58
2018-02-07T02:02:19.257Z,35.67
2018-02-07T02:04:47.654Z,32.45
2018-02-07T02:07:16.033Z,37.17
2018-02-07T02:09:44.445Z,34.97
2018-02-07T02:12:12.817Z,36.95
2018-02-07T02:14:41.209Z,33.03
2018-02-07T02:17:09.633Z,35.97
2018-02-07T02:19:38.185Z,36.88
2018-02-07T02:22:07.325Z,39.72
2018-02-07T02:24:36.485Z,40.35
2018-02-07T02:27:05.628Z,43.65
2018-02-07T02:29:34.006Z,43.45
2018-02-07T02:32:02.425Z,40.40
2018-02-07T02:34:31.569Z,42.80
2018-02-07T02:36:59.946Z,42.95
2018-02-07T02:39:28.374Z,43.08
2018-02-07T02:41:57.514Z,40.80
2018-02-07T02:44:25.898Z,42.17
2018-02-07T02:46:54.317Z,42.65
2018-02-07T02:49:22.691Z,41.53
2018-02-07T02:51:51.069Z,43.67
2018-02-07T02:54:19.498Z,46.72
2018-02-07T02:56:47.902Z,46.00
2018-02-07T02:59:16.280Z,44.70
2018-02-07T03:01:44.685Z,45.28
2018-02-07T03:04:13.086Z,47.55
2018-02-07T03:06:42.228Z,44.72
2018-02-07T03:09:10.661Z,50.97
2018-02-07T03:11:39.828Z,46.85
2018-02-07T03:14:08.225Z,47.75
2018-02-07T03:16:36.632Z,46.30
2018-02-07T03:19:05.770Z,47.65
2018-02-07T03:21:34.137Z,43.78
2018-02-07T03:24:02.804Z,42.42
2018-02-07T03:26:31.203Z,46.72
2018-02-07T03:28:59.578Z,47.30
2018-02-07T03:31:28.171Z,48.87
2018-02-07T03:33:56.541Z,45.67
2018-02-07T03:36:24.918Z,46.03
2018-02-07T03:38:53.315Z,45.10
2018-02-07T03:41:21.730Z,44.40
2018-02-07T03:43:50.878Z,45.53
2018-02-07T03:46:19.277Z,43.30
2018-02-07T03:48:47.646Z,41.88
2018-02-07T03:51:16.011Z,44.03
2018-02-07T03:53:44.690Z,43.85
2018-02-07T03:56:13.075Z,45.78
2018-02-07T03:58:41.486Z,45.55
2018-02-07T04:01:11.393Z,42.47
2018-02-07T04:03:39.990Z,44.58
2018-02-07T04:06:08.425Z,45.30
2018-02-07T04:08:36.820Z,43.42
2018-02-07T04:11:05.249Z,45.78
2018-02-07T04:13:34.383Z,45.08
2018-02-07T04:16:02.805Z,45.78
2018-02-07T04:18:31.181Z,44.88
2018-02-07T04:20:59.555Z,46.85
2018-02-07T04:23:27.949Z,44.38
2018-02-07T04:25:57.082Z,45.28
2018-02-07T04:28:25.445Z,44.95
2018-02-07T04:30:53.840Z,47.15
2018-02-07T04:33:22.202Z,44.35
2018-02-07T04:35:50.573Z,46.60
2018-02-07T04:38:19.741Z,42.25
2018-02-07T04:40:48.113Z,41.35
2018-02-07T04:43:16.477Z,45.42
2018-02-07T04:45:44.888Z,44.28
2018-02-07T04:48:13.271Z,44.75
2018-02-07T04:50:42.395Z,45.60
2018-02-07T04:53:10.804Z,42.88
2018-02-07T04:55:39.169Z,45.22
2018-02-07T04:58:07.564Z,44.40
2018-02-07T05:00:36.132Z,45.70
2018-02-07T05:03:04.523Z,47.42
2018-02-07T05:05:33.097Z,46.30
2018-02-07T05:08:01.506Z,46.65
2018-02-07T05:10:29.873Z,46.60
2018-02-07T05:12:58.452Z,44.28
2018-02-07T05:15:26.853Z,46.22
2018-02-07T05:17:55.226Z,45.17
2018-02-07T05:20:23.593Z,45.75
2018-02-07T05:22:52.024Z,45.38
2018-02-07T05:25:20.385Z,49.40
2018-02-07T05:27:49.509Z,45.88
2018-02-07T05:30:17.909Z,44.67
2018-02-07T05:32:46.277Z,47.22
2018-02-07T05:35:14.644Z,44.95
2018-02-07T05:37:43.040Z,45.20
2018-02-07T05:40:11.420Z,45.28
2018-02-07T05:42:39.824Z,46.67
2018-02-07T05:45:08.264Z,45.75
2018-02-07T05:47:36.717Z,48.70
2018-02-07T05:50:05.861Z,46.97
2018-02-07T05:52:34.262Z,49.00
2018-02-07T05:55:02.638Z,43.78
2018-02-07T05:57:31.006Z,48.47
2018-02-07T05:59:59.401Z,50.33
2018-02-07T06:02:27.822Z,47.90
2018-02-07T06:04:56.208Z,49.20
2018-02-07T06:07:24.873Z,50.33
2018-02-07T06:09:54.053Z,50.15
2018-02-07T06:12:22.409Z,47.42
2018-02-07T06:14:50.804Z,46.63
2018-02-07T06:17:19.166Z,46.03
2018-02-07T06:19:47.565Z,47.78
2018-02-07T06:22:15.959Z,47.55
2018-02-07T06:24:45.120Z,44.00
2018-02-07T06:27:13.497Z,45.15
2018-02-07T06:29:41.907Z,46.40
2018-02-07T06:32:11.041Z,46.97
2018-02-07T06:34:39.416Z,45.47
2018-02-07T06:37:07.818Z,43.17
2018-02-07T06:39:36.210Z,47.35
2018-02-07T06:42:04.576Z,44.67
2018-02-07T06:44:32.977Z,47.22
2018-02-07T06:47:01.357Z,48.75
2018-02-07T06:49:29.728Z,46.83
2018-02-07T06:51:58.136Z,44.30
2018-02-07T06:54:27.573Z,46.53
2018-02-07T06:56:55.938Z,47.88
2018-02-07T06:59:24.349Z,47.42
2018-02-07T07:01:52.728Z,46.35
2018-02-07T07:04:21.112Z,47.28
2018-02-07T07:06:49.536Z,46.05
2018-02-07T07:09:18.683Z,46.42
2018-02-07T07:11:47.051Z,49.00
2018-02-07T07:14:15.461Z,48.10
2018-02-07T07:16:43.834Z,50.65
2018-02-07T07:19:12.205Z,48.13
2018-02-07T07:21:40.610Z,46.25
2018-02-07T07:24:08.983Z,45.10
2018-02-07T07:26:37.345Z,46.58
2018-02-07T07:29:05.745Z,47.50
2018-02-07T07:31:34.884Z,49.85
2018-02-07T07:34:03.259Z,46.78
2018-02-07T07:36:31.682Z,49.17
2018-02-07T07:39:00.049Z,46.13
2018-02-07T07:41:28.423Z,45.25
2018-02-07T07:43:56.812Z,43.80
2018-02-07T07:46:25.191Z,48.92
2018-02-07T07:48:53.577Z,49.00
2018-02-07T07:51:22.024Z,48.72
2018-02-07T07:53:50.449Z,50.25
2018-02-07T07:56:18.845Z,48.92
2018-02-07T07:58:47.245Z,50.20
2018-02-07T08:01:15.610Z,50.30
2018-02-07T08:03:43.977Z,52.35
2018-02-07T08:06:13.145Z,58.30
2018-02-07T08:08:41.515Z,51.20
2018-02-07T08:11:09.896Z,53.85
2018-02-07T08:13:38.306Z,49.88
2018-02-07T08:16:07.472Z,47.10
2018-02-07T08:18:35.842Z,48.13
2018-02-07T08:21:04.262Z,49.38
2018-02-07T08:23:33.389Z,49.65
2018-02-07T08:26:01.753Z,49.35
2018-02-07T08:28:30.161Z,50.80
2018-02-07T08:30:58.973Z,50.60
2018-02-07T08:33:27.353Z,49.50
2018-02-07T08:35:56.631Z,47.55
2018-02-07T08:38:25.016Z,48.75
2018-02-07T08:40:53.417Z,53.78
2018-02-07T08:43:21.120Z,51.80
2018-02-07T08:45:49.524Z,48.87
2018-02-07T08:48:17.909Z,50.72
2018-02-07T08:50:46.377Z,50.40
2018-02-07T08:53:14.745Z,48.83
2018-02-07T08:55:43.118Z,50.17
2018-02-07T08:58:11.534Z,46.25
2018-02-07T09:00:39.914Z,52.35
2018-02-07T09:03:08.282Z,49.03
2018-02-07T09:05:37.058Z,50.42
2018-02-07T09:08:05.430Z,47.00
2018-02-07T09:10:33.797Z,49.58
2018-02-07T09:13:02.188Z,48.65
2018-02-07T09:15:30.562Z,43.00
2018-02-07T09:17:58.944Z,47.03
2018-02-07T09:20:27.337Z,45.45
2018-02-07T09:22:55.700Z,48.90
2018-02-07T09:25:24.062Z,48.45
2018-02-07T09:27:52.576Z,44.50
2018-02-07T09:30:20.953Z,48.67
2018-02-07T09:32:49.313Z,44.55
2018-02-07T09:35:17.709Z,47.00
2018-02-07T09:37:46.082Z,44.47
2018-02-07T09:40:14.450Z,47.35
2018-02-07T09:42:43.037Z,45.47
2018-02-07T09:45:11.429Z,45.35
2018-02-07T09:47:39.795Z,44.47
2018-02-07T09:50:10.184Z,44.88
2018-02-07T09:52:39.265Z,42.28
2018-02-07T09:55:08.430Z,47.35
2018-02-07T09:57:36.847Z,47.22
2018-02-07T10:00:05.990Z,46.13
2018-02-07T10:02:34.358Z,43.22
2018-02-07T10:05:02.774Z,46.28
2018-02-07T10:07:31.140Z,45.90
2018-02-07T10:09:59.505Z,48.28
2018-02-07T10:12:27.938Z,46.22
2018-02-07T10:14:57.062Z,46.78
2018-02-07T10:17:25.449Z,46.78
2018-02-07T10:19:53.870Z,50.75
2018-02-07T10:22:22.253Z,47.80
2018-02-07T10:24:50.630Z,47.13
2018-02-07T10:27:19.037Z,45.30
2018-02-07T10:29:48.183Z,46.72
2018-02-07T10:32:16.553Z,49.03
2018-02-07T10:34:44.965Z,45.47
2018-02-07T10:37:13.399Z,49.47
2018-02-07T10:39:41.768Z,47.90
2018-02-07T10:42:10.160Z,46.97
2018-02-07T10:44:38.526Z,46.33
2018-02-07T10:47:06.886Z,44.88
2018-02-07T10:49:36.053Z,46.15
2018-02-07T10:52:04.416Z,46.33
2018-02-07T10:54:33.106Z,43.70
2018-02-07T10:57:01.530Z,46.08
2018-02-07T10:59:30.688Z,47.45
2018-02-07T11:01:59.057Z,47.38
2018-02-07T11:04:27.475Z,50.53
2018-02-07T11:06:56.673Z,49.13
2018-02-07T11:09:25.800Z,49.65
2018-02-07T11:11:54.200Z,47.95
2018-02-07T11:14:22.586Z,52.42
2018-02-07T11:16:50.953Z,50.08
2018-02-07T11:19:19.377Z,49.40
2018-02-07T11:21:48.508Z,50.40
2018-02-07T11:24:16.884Z,44.92
2018-02-07T11:26:45.285Z,47.55
2018-02-07T11:29:13.649Z,47.20
2018-02-07T11:31:42.025Z,50.80
2018-02-07T11:34:10.445Z,48.03
2018-02-07T11:36:38.821Z,46.92
2018-02-07T11:39:07.217Z,50.05
2018-02-07T11:41:35.629Z,47.40
2018-02-07T11:44:04.012Z,48.83
2018-02-07T11:46:32.378Z,45.25
2018-02-07T11:49:00.786Z,51.03
2018-02-07T11:51:29.156Z,51.90
2018-02-07T11:53:57.536Z,51.20
2018-02-07T11:56:25.958Z,49.97
2018-02-07T11:58:54.322Z,51.50
2018-02-07T12:01:22.721Z,47.65
2018-02-07T12:03:51.269Z,46.85
2018-02-07T12:06:19.639Z,49.60
2018-02-07T12:08:48.040Z,47.05
2018-02-07T12:11:16.442Z,49.22
2018-02-07T12:13:44.821Z,48.05
2018-02-07T12:16:13.959Z,50.20
2018-02-07T12:18:42.353Z,51.42
2018-02-07T12:21:10.722Z,49.45
2018-02-07T12:23:39.116Z,46.88
2018-02-07T12:26:07.794Z,49.88
2018-02-07T12:28:36.180Z,49.60
2018-02-07T12:31:04.555Z,52.78
2018-02-07T12:33:32.950Z,50.85
2018-02-07T12:36:02.825Z,54.25
2018-02-07T12:38:31.196Z,51.80
2018-02-07T12:40:59.603Z,51.28
2018-02-07T12:43:27.974Z,51.17
2018-02-07T12:45:56.341Z,53.83
2018-02-07T12:48:24.759Z,52.00
2018-02-07T12:50:53.118Z,50.85
2018-02-07T12:53:21.478Z,51.30
2018-02-07T12:55:49.962Z,51.65
2018-02-07T12:58:18.355Z,51.42
2018-02-07T13:00:46.729Z,50.72
2018-02-07T13:03:15.130Z,49.67
2018-02-07T13:05:44.601Z,52.05
2018-02-07T13:08:12.972Z,55.12
2018-02-07T13:10:41.397Z,53.63
2018-02-07T13:13:09.767Z,55.15
2018-02-07T13:15:38.158Z,52.17
2018-02-07T13:18:06.615Z,51.30
2018-02-07T13:20:35.090Z,48.85
2018-02-07T13:23:03.705Z,52.85
2018-02-07T13:25:32.142Z,51.78
2018-02-07T13:28:00.562Z,50.90
2018-02-07T13:30:29.156Z,53.40
2018-02-07T13:32:59.090Z,54.45
2018-02-07T13:35:28.241Z,50.60
2018-02-07T13:37:56.677Z,54.78
2018-02-07T13:40:25.086Z,52.83
2018-02-07T13:42:53.518Z,53.53
2018-02-07T13:45:22.800Z,50.03
2018-02-07T13:47:51.198Z,52.28
2018-02-07T13:50:20.334Z,53.00
2018-02-07T13:52:48.770Z,54.67
2018-02-07T13:55:18.014Z,52.80
2018-02-07T13:57:46.442Z,49.08
2018-02-07T14:00:15.601Z,52.33
2018-02-07T14:02:44.083Z,49.65
2018-02-07T14:05:12.663Z,51.42
2018-02-07T14:07:41.062Z,50.97
2018-02-07T14:10:09.489Z,48.65
2018-02-07T14:12:38.152Z,51.70
2018-02-07T14:15:07.323Z,49.63
2018-02-07T14:17:35.961Z,50.47
2018-02-07T14:20:04.346Z,50.00
2018-02-07T14:22:32.826Z,49.00
2018-02-07T14:25:01.247Z,50.58
2018-02-07T14:27:29.670Z,51.47
2018-02-07T14:29:58.143Z,47.60
2018-02-07T14:32:27.309Z,46.58
2018-02-07T14:34:55.696Z,48.42
2018-02-07T14:37:24.849Z,49.80
2018-02-07T14:39:53.262Z,51.80
2018-02-07T14:42:21.646Z,52.22
2018-02-07T14:44:50.038Z,48.40
2018-02-07T14:47:18.450Z,49.28
2018-02-07T14:49:46.850Z,51.30
2018-02-07T14:52:15.232Z,51.00
2018-02-07T14:54:43.635Z,47.78
2018-02-07T14:57:12.605Z,50.05
2018-02-07T14:59:40.985Z,48.25
2018-02-07T15:02:09.405Z,50.15
2018-02-07T15:04:38.553Z,50.28
2018-02-07T15:07:06.922Z,51.47
2018-02-07T15:09:35.337Z,48.92
2018-02-07T15:12:03.796Z,50.03
2018-02-07T15:14:32.175Z,53.50
2018-02-07T15:17:00.651Z,50.20
2018-02-07T15:19:29.017Z,52.75
2018-02-07T15:21:57.489Z,49.28
2018-02-07T15:24:26.006Z,49.90
2018-02-07T15:26:54.443Z,55.22
2018-02-07T15:29:22.803Z,50.22
2018-02-07T15:31:52.101Z,54.40
2018-02-07T15:34:21.249Z,53.58
2018-02-07T15:36:49.657Z,56.85
2018-02-07T15:39:19.584Z,56.80
2018-02-07T15:41:48.745Z,53.05
2018-02-07T15:44:17.150Z,52.72
2018-02-07T15:46:47.098Z,52.42
2018-02-07T15:49:15.606Z,52.80
2018-02-07T15:51:43.981Z,54.53
2018-02-07T15:54:12.434Z,48.95
2018-02-07T15:56:41.613Z,56.72
2018-02-07T15:59:10.753Z,50.88
2018-02-07T16:01:39.156Z,52.42
2018-02-07T16:04:07.560Z,52.92
2018-02-07T16:06:36.114Z,50.20
2018-02-07T16:09:04.581Z,48.70
2018-02-07T16:11:33.022Z,54.70
2018-02-07T16:14:02.197Z,55.20
2018-02-07T16:16:32.117Z,54.20
2018-02-07T16:19:00.512Z,55.50
2018-02-07T16:21:29.856Z,54.25
2018-02-07T16:23:58.349Z,53.08
2018-02-07T16:26:26.735Z,51.37
2018-02-07T16:28:55.142Z,50.40
2018-02-07T16:31:24.331Z,47.33
2018-02-07T16:33:52.888Z,50.00
2018-02-07T16:36:21.267Z,49.92
2018-02-07T16:38:49.688Z,51.40
2018-02-07T16:41:18.281Z,52.83
2018-02-07T16:43:46.676Z,51.13
2018-02-07T16:46:15.142Z,50.40
2018-02-07T16:48:43.545Z,53.20
2018-02-07T16:51:12.725Z,50.53
2018-02-07T16:53:41.338Z,55.97
2018-02-07T16:56:10.519Z,52.70
2018-02-07T16:58:39.038Z,54.97
2018-02-07T17:01:08.414Z,52.85
2018-02-07T17:03:36.959Z,58.38
2018-02-07T17:06:05.345Z,66.68
2018-02-07T17:08:34.118Z,56.45
2018-02-07T17:11:02.719Z,55.42
2018-02-07T17:13:31.233Z,57.90
2018-02-07T17:16:00.358Z,56.20
2018-02-07T17:18:28.806Z,55.25
2018-02-07T17:20:57.374Z,56.55
2018-02-07T17:23:25.996Z,56.97
2018-02-07T17:25:54.942Z,52.22
2018-02-07T17:28:24.039Z,53.13
2018-02-07T17:30:52.904Z,56.25
2018-02-07T17:33:21.785Z,55.22
2018-02-07T17:35:50.319Z,53.40
2018-02-07T17:38:18.858Z,52.80
2018-02-07T17:40:48.427Z,52.20
2018-02-07T17:43:16.951Z,51.88
2018-02-07T17:45:46.702Z,54.88
2018-02-07T17:48:15.607Z,56.03
2018-02-07T17:50:44.994Z,53.80
2018-02-07T17:53:13.682Z,51.45
2018-02-07T17:55:42.570Z,55.63
2018-02-07T17:58:11.599Z,56.92
2018-02-07T18:00:40.826Z,59.15
2018-02-07T18:03:09.549Z,51.63
2018-02-07T18:05:39.355Z,55.72
2018-02-07T18:08:07.997Z,56.53
2018-02-07T18:10:37.175Z,57.80
2018-02-07T18:13:07.671Z,56.28
2018-02-07T18:15:36.461Z,57.08
2018-02-07T18:18:05.184Z,57.90
2018-02-07T18:20:34.962Z,60.92
2018-02-07T18:23:04.303Z,58.35
2018-02-07T18:25:34.071Z,61.80
2018-02-07T18:28:02.925Z,62.15
2018-02-07T18:30:32.140Z,63.90
2018-02-07T18:33:01.186Z,61.08
2018-02-07T18:35:30.083Z,57.78
2018-02-07T18:37:59.411Z,62.25
2018-02-07T18:40:29.151Z,63.28
2018-02-07T18:42:58.825Z,60.85
2018-02-07T18:45:27.674Z,59.15
2018-02-07T18:47:56.699Z,59.45
2018-02-07T18:50:26.129Z,61.28
2018-02-07T18:52:54.942Z,57.75
2018-02-07T18:55:23.826Z,59.92
2018-02-07T18:57:53.126Z,61.00
2018-02-07T19:00:22.117Z,62.25
2018-02-07T19:02:51.283Z,59.92
2018-02-07T19:05:20.103Z,62.75
2018-02-07T19:07:48.970Z,66.25
2018-02-07T19:10:17.986Z,61.15
2018-02-07T19:12:47.084Z,59.83
2018-02-07T19:15:16.143Z,58.65
2018-02-07T19:17:45.989Z,63.28
2018-02-07T19:20:15.366Z,58.80
2018-02-07T19:22:45.373Z,58.00
2018-02-07T19:25:14.243Z,60.40
2018-02-07T19:27:43.097Z,59.90
2018-02-07T19:30:12.015Z,60.72
2018-02-07T19:32:40.851Z,61.75
2018-02-07T19:35:10.257Z,61.22
2018-02-07T19:37:39.246Z,61.78
2018-02-07T19:40:08.444Z,58.42
2018-02-07T19:42:37.569Z,59.70
2018-02-07T19:45:06.546Z,60.50
2018-02-07T19:47:36.031Z,63.15
2018-02-07T19:50:04.982Z,59.83
2018-02-07T19:52:35.579Z,57.28
2018-02-07T19:55:05.746Z,59.30
2018-02-07T19:57:34.686Z,62.17
2018-02-07T20:00:04.358Z,57.62
2018-02-07T20:02:33.287Z,61.25
2018-02-07T20:05:02.341Z,57.95
2018-02-07T20:07:31.276Z,59.15
2018-02-07T20:10:00.863Z,56.70
2018-02-07T20:12:29.723Z,63.80
2018-02-07T20:14:58.887Z,62.58
2018-02-07T20:17:28.379Z,63.35
2018-02-07T20:19:57.815Z,59.85
2018-02-07T20:22:28.258Z,62.65
2018-02-07T20:24:57.360Z,63.85
2018-02-07T20:27:26.862Z,62.88
2018-02-07T20:29:56.487Z,55.97
2018-02-07T20:32:25.541Z,66.55
2018-02-07T20:34:55.480Z,63.50
2018-02-07T20:37:25.966Z,62.65
2018-02-07T20:39:56.958Z,59.67
2018-02-07T20:42:26.467Z,60.63
2018-02-07T20:44:55.877Z,59.47
2018-02-07T20:47:25.381Z,57.75
2018-02-07T20:49:56.442Z,54.38
2018-02-07T20:52:26.842Z,57.80
2018-02-07T20:54:55.962Z,67.00
2018-02-07T20:57:26.067Z,57.75
2018-02-07T20:59:55.491Z,62.10
2018-02-07T21:02:26.494Z,56.37
2018-02-07T21:04:55.863Z,58.40
2018-02-07T21:07:25.028Z,58.38
2018-02-07T21:09:54.730Z,59.83
2018-02-07T21:12:25.809Z,59.70
2018-02-07T21:14:55.840Z,57.33
2018-02-07T21:17:24.319Z,58.50
2018-02-07T21:19:53.156Z,56.40
2018-02-07T21:22:21.843Z,53.45
2018-02-07T21:24:50.937Z,57.62
2018-02-07T21:27:21.167Z,52.92
2018-02-07T21:29:50.236Z,55.55
2018-02-07T21:32:18.773Z,54.10
2018-02-07T21:34:47.809Z,56.88
2018-02-07T21:37:17.454Z,56.90
2018-02-07T21:39:46.227Z,54.75
2018-02-07T21:42:15.394Z,53.22
2018-02-07T21:44:45.498Z,56.90
2018-02-07T21:47:14.332Z,53.80
2018-02-07T21:49:43.577Z,55.47
2018-02-07T21:52:12.495Z,56.13
2018-02-07T21:54:41.106Z,57.45
2018-02-07T21:57:09.796Z,54.28
2018-02-07T21:59:38.741Z,54.80
2018-02-07T22:02:08.144Z,57.40
2018-02-07T22:04:37.541Z,53.92
2018-02-07T22:07:05.981Z,57.95
2018-02-07T22:09:34.397Z,56.55
2018-02-07T22:12:03.530Z,55.38
2018-02-07T22:14:31.930Z,58.13
2018-02-07T22:17:00.708Z,55.45
2018-02-07T22:19:29.872Z,53.55
2018-02-07T22:21:58.274Z,55.10
2018-02-07T22:24:26.922Z,56.20
2018-02-07T22:26:56.091Z,55.20
2018-02-07T22:29:24.473Z,57.70
2018-02-07T22:31:52.877Z,54.92
2018-02-07T22:34:22.027Z,55.17
2018-02-07T22:36:50.599Z,54.35
2018-02-07T22:39:18.978Z,54.63
2018-02-07T22:41:47.369Z,55.45
2018-02-07T22:44:15.777Z,52.13
2018-02-07T22:46:44.930Z,52.70
2018-02-07T22:49:13.329Z,54.13
2018-02-07T22:51:41.710Z,54.33
2018-02-07T22:54:10.598Z,53.75
2018-02-07T22:56:39.090Z,52.97
2018-02-07T22:59:07.465Z,51.88
2018-02-07T23:01:35.881Z,49.28
2018-02-07T23:04:05.048Z,52.00
2018-02-07T23:06:33.458Z,51.90
2018-02-07T23:09:02.593Z,52.42
2018-02-07T23:11:31.117Z,53.85
2018-02-07T23:14:00.259Z,50.95
2018-02-07T23:16:28.630Z,47.45
2018-02-07T23:18:57.023Z,53.28
2018-02-07T23:21:25.437Z,52.08
2018-02-07T23:23:55.344Z,51.55
2018-02-07T23:26:23.741Z,51.83
2018-02-07T23:28:52.488Z,48.00
2018-02-07T23:31:20.873Z,49.58
2018-02-07T23:33:49.366Z,50.05
2018-02-07T23:36:17.771Z,53.47
2018-02-07T23:38:46.918Z,48.90
2018-02-07T23:41:15.326Z,49.47
2018-02-07T23:43:43.705Z,51.60
2018-02-07T23:46:12.117Z,49.38
2018-02-07T23:48:41.266Z,47.35
2018-02-07T23:51:09.646Z,48.08
2018-02-07T23:53:38.111Z,46.30
2018-02-07T23:56:06.504Z,47.50
2018-02-07T23:58:34.896Z,49.95
